Time;durP1;ratioP1;P1;durP2;ratioP2;P2;SDS_P1;SDS_P2;PMS_P1;PMS_P2;Temp;Humidity;BMP_temperature;BMP_pressure;BME280_temperature;BME280_humidity;BME280_pressure;Samples;Min_cycle;Max_cycle;Signal;HPM_P1;HPM_P2
2022/01/15 00:01:32;;;;;;;80.20;22.23;;;;;;;3.78;100.00;103341.78;5060821;28;20036;-74
2022/01/15 00:03:57;;;;;;;94.85;23.13;;;;;;;3.76;100.00;103346.13;5055550;28;20507;-84
2022/01/15 00:06:22;;;;;;;81.43;22.45;;;;;;;3.74;100.00;103342.56;5059109;28;20024;-84
2022/01/15 00:08:48;;;;;;;83.57;22.98;;;;;;;3.80;100.00;103341.81;5075374;28;20032;-78
2022/01/15 00:11:13;;;;;;;95.65;24.90;;;;;;;3.80;100.00;103336.56;5074289;28;20119;-80
2022/01/15 00:13:41;;;;;;;118.38;25.38;;;;;;;3.76;100.00;103331.28;5075478;28;20124;-74
2022/01/15 00:18:47;;;;;;;88.40;23.20;;;;;;;3.76;100.00;103326.03;5075120;28;20089;-82
2022/01/15 00:21:13;;;;;;;84.30;23.33;;;;;;;3.69;100.00;103329.34;5071024;28;20047;-74
2022/01/15 00:23:39;;;;;;;81.38;23.40;;;;;;;3.69;100.00;103329.34;5075093;28;20511;-75
2022/01/15 00:26:04;;;;;;;87.25;24.15;;;;;;;3.71;100.00;103314.56;5075276;28;20040;-80
2022/01/15 00:28:30;;;;;;;78.05;20.90;;;;;;;3.71;100.00;103311.94;5074966;28;20099;-84
2022/01/15 00:30:55;;;;;;;89.45;23.80;;;;;;;3.72;100.00;103313.72;5075399;28;20430;-74
2022/01/15 00:33:20;;;;;;;89.97;23.10;;;;;;;3.73;100.00;103306.72;5071230;28;20465;-80
2022/01/15 00:35:46;;;;;;;81.63;23.85;;;;;;;3.72;100.00;103308.47;5054841;28;20107;-82
2022/01/15 00:38:11;;;;;;;85.00;23.48;;;;;;;3.74;100.00;103300.63;5057210;28;20033;-74
2022/01/15 00:40:37;;;;;;;93.93;22.73;;;;;;;3.72;100.00;103304.94;5074759;28;20028;-84
2022/01/15 00:43:02;;;;;;;83.30;22.00;;;;;;;3.70;100.00;103301.44;5074065;28;20025;-84
2022/01/15 00:45:32;;;;;;;74.63;20.98;;;;;;;3.67;100.00;103297.00;5075130;28;20453;-80
2022/01/15 00:47:57;;;;;;;79.07;21.25;;;;;;;3.66;100.00;103289.97;5074710;28;20023;-84
2022/01/15 00:50:23;;;;;;;81.43;20.95;;;;;;;3.62;100.00;103293.38;5074189;28;20040;-73
2022/01/15 00:52:49;;;;;;;76.82;20.67;;;;;;;3.60;100.00;103287.22;5074147;28;20086;-83
2022/01/15 00:55:15;;;;;;;73.53;19.52;;;;;;;3.53;100.00;103291.44;5074507;28;20120;-78
2022/01/15 00:57:41;;;;;;;63.08;18.98;;;;;;;3.45;100.00;103292.97;5074649;28;20036;-83
2022/01/15 01:00:09;;;;;;;72.10;18.35;;;;;;;3.39;100.00;103285.84;5073940;28;20162;-80
2022/01/15 01:02:34;;;;;;;61.92;18.70;;;;;;;3.37;100.00;103291.91;5059513;28;20028;-79
2022/01/15 01:04:59;;;;;;;67.80;18.17;;;;;;;3.31;100.00;103287.38;5074741;28;20384;-81
2022/01/15 01:07:25;;;;;;;71.20;18.77;;;;;;;3.28;100.00;103284.69;5074087;28;20024;-80
2022/01/15 01:21:09;;;;;;;81.28;19.15;;;;;;;3.24;100.00;103270.63;5012079;28;20044;-77
2022/01/15 01:23:26;;;;;;;82.63;20.50;;;;;;;3.28;100.00;103256.75;5011772;28;20042;-74
2022/01/15 01:25:57;;;;;;;82.30;19.52;;;;;;;3.36;100.00;103266.53;5011688;28;20169;-75
2022/01/15 01:30:56;;;;;;;92.75;21.25;;;;;;;3.40;100.00;103253.56;5012450;28;20050;-76
2022/01/15 01:39:01;;;;;;;89.57;20.48;;;;;;;3.49;100.00;103244.16;5011698;28;20044;-73
2022/01/15 01:41:35;;;;;;;87.65;19.17;;;;;;;3.42;100.00;103245.75;5011636;28;20037;-82
2022/01/15 01:44:02;;;;;;;69.93;20.27;;;;;;;3.38;100.00;103249.16;5011236;28;20040;-83
2022/01/15 01:48:55;;;;;;;81.90;20.77;;;;;;;3.33;100.00;103245.53;5011684;28;20046;-81
2022/01/15 01:51:23;;;;;;;66.53;18.27;;;;;;;3.41;100.00;103246.59;5018390;28;20045;-81
2022/01/15 01:53:50;;;;;;;65.82;17.88;;;;;;;3.40;100.00;103248.34;5064899;28;20552;-77
2022/01/15 01:56:15;;;;;;;66.15;17.48;;;;;;;3.39;100.00;103237.78;5073162;28;20066;-83
2022/01/15 01:58:41;;;;;;;72.30;17.48;;;;;;;3.37;100.00;103242.13;5073415;28;20021;-77
2022/01/15 02:01:06;;;;;;;66.68;17.60;;;;;;;3.36;100.00;103233.38;5073350;28;20414;-79
2022/01/15 02:03:31;;;;;;;71.40;17.40;;;;;;;3.37;100.00;103227.28;5072965;28;20021;-75
2022/01/15 02:05:57;;;;;;;67.30;17.27;;;;;;;3.35;100.00;103226.38;5072872;28;20421;-80
2022/01/15 02:08:22;;;;;;;63.95;16.90;;;;;;;3.38;100.00;103228.19;5072977;28;20036;-77
2022/01/15 02:10:49;;;;;;;71.57;18.73;;;;;;;3.38;100.00;103223.81;5072444;28;20038;-74
2022/01/15 02:13:15;;;;;;;60.97;16.02;;;;;;;3.37;100.00;103215.94;5073145;28;20384;-74
2022/01/15 02:15:40;;;;;;;59.20;16.10;;;;;;;3.35;100.00;103217.63;5072728;28;20032;-76
2022/01/15 02:18:05;;;;;;;72.63;16.35;;;;;;;3.30;100.00;103219.25;5054515;28;20032;-79
2022/01/15 02:25:48;;;;;;;74.50;17.95;;;;;;;3.31;100.00;103208.81;5052854;28;20287;-82
2022/01/15 02:28:17;;;;;;;71.30;17.50;;;;;;;3.30;100.00;103204.44;5069769;28;20036;-78
2022/01/15 02:30:42;;;;;;;69.53;17.02;;;;;;;3.28;100.00;103201.75;5073102;28;20025;-81
2022/01/15 02:33:08;;;;;;;76.30;18.30;;;;;;;3.28;100.00;103203.50;5072561;28;20033;-83
2022/01/15 02:35:34;;;;;;;75.18;17.58;;;;;;;3.31;100.00;103197.47;5072792;28;20037;-75
2022/01/15 02:38:05;;;;;;;62.85;16.55;;;;;;;3.26;100.00;103198.25;5072280;28;20464;-81
2022/01/15 02:40:33;;;;;;;67.85;17.25;;;;;;;3.24;100.00;103189.44;5072387;28;20028;-81
2022/01/15 02:43:04;;;;;;;55.83;15.48;;;;;;;3.23;100.00;103184.19;5072509;28;20020;-74
2022/01/15 02:45:32;;;;;;;64.45;15.68;;;;;;;3.20;100.00;103178.88;5072645;28;20062;-74
2022/01/15 02:48:09;;;;;;;67.78;16.88;;;;;;;3.18;100.00;103172.72;5072204;28;20099;-74
2022/01/15 02:50:34;;;;;;;60.00;16.08;;;;;;;3.19;100.00;103172.75;5072657;28;20059;-74
2022/01/15 02:53:01;;;;;;;69.22;17.30;;;;;;;3.19;100.00;103172.75;5071744;28;21590;-84
2022/01/15 02:55:27;;;;;;;73.80;18.17;;;;;;;3.21;100.00;103163.22;5072257;28;20089;-83
2022/01/15 02:57:52;;;;;;;76.15;18.92;;;;;;;3.23;100.00;103168.47;5072684;28;20025;-77
2022/01/15 03:00:18;;;;;;;64.57;16.85;;;;;;;3.26;100.00;103158.06;5072003;28;20025;-78
2022/01/15 03:02:43;;;;;;;61.08;16.90;;;;;;;3.28;100.00;103165.09;5055037;28;20040;-77
2022/01/15 03:05:09;;;;;;;52.65;17.05;;;;;;;3.27;100.00;103162.44;5067153;28;20487;-74
2022/01/15 03:07:36;;;;;;;56.47;16.95;;;;;;;3.23;100.00;103143.16;5072162;28;20033;-74
2022/01/15 03:10:01;;;;;;;58.78;16.08;;;;;;;3.19;100.00;103157.03;5072020;28;20055;-74
2022/01/15 03:12:26;;;;;;;62.92;17.60;;;;;;;3.15;100.00;103151.72;5072021;28;20476;-77
2022/01/15 03:14:55;;;;;;;58.90;16.75;;;;;;;3.11;100.00;103154.25;5072223;28;20052;-74
2022/01/15 03:17:20;;;;;;;52.72;16.08;;;;;;;3.07;100.00;103147.19;5072443;28;20031;-83
2022/01/15 03:19:45;;;;;;;56.60;16.05;;;;;;;3.11;100.00;103140.28;5071971;28;20100;-80
2022/01/15 03:22:11;;;;;;;51.00;15.98;;;;;;;3.09;100.00;103140.22;5072131;28;20039;-84
2022/01/15 03:24:36;;;;;;;54.22;16.40;;;;;;;3.08;100.00;103148.03;5072099;28;20917;-82
2022/01/15 03:27:02;;;;;;;49.38;15.30;;;;;;;3.08;100.00;103151.56;5071490;28;20044;-83
2022/01/15 03:29:27;;;;;;;59.45;16.13;;;;;;;3.11;100.00;103141.16;5072126;28;20392;-79
2022/01/15 03:31:52;;;;;;;54.53;16.67;;;;;;;3.10;100.00;103136.75;5073343;28;20508;-76
2022/01/15 03:34:18;;;;;;;51.17;14.80;;;;;;;3.14;100.00;103131.63;5075993;28;20037;-74
2022/01/15 03:36:43;;;;;;;48.50;14.27;;;;;;;3.08;100.00;103121.88;5075767;28;20028;-73
2022/01/15 03:39:08;;;;;;;47.28;14.35;;;;;;;3.02;100.00;103125.25;5075967;28;20468;-85
2022/01/15 03:41:34;;;;;;;44.25;14.52;;;;;;;3.02;100.00;103130.47;5075242;28;20384;-76
2022/01/15 03:43:59;;;;;;;43.70;13.35;;;;;;;3.01;100.00;103117.34;5075877;28;20064;-79
2022/01/15 03:46:24;;;;;;;44.53;13.35;;;;;;;2.95;100.00;103120.69;5075778;28;20107;-83
2022/01/15 03:48:50;;;;;;;46.63;13.10;;;;;;;2.97;100.00;103121.63;5075845;28;20518;-84
2022/01/15 03:51:19;;;;;;;53.30;14.07;;;;;;;2.94;100.00;103124.16;5075693;28;20029;-73
2022/01/15 03:53:44;;;;;;;48.67;13.73;;;;;;;2.89;100.00;103131.00;5070761;28;20072;-73
2022/01/15 03:56:09;;;;;;;46.38;14.30;;;;;;;2.85;100.00;103126.56;5056051;28;20021;-74
2022/01/15 03:58:35;;;;;;;46.55;13.48;;;;;;;2.79;100.00;103122.06;5072387;28;20495;-81
2022/01/15 04:01:00;;;;;;;47.97;14.95;;;;;;;2.77;100.00;103122.00;5069068;28;20035;-82
2022/01/15 04:03:25;;;;;;;51.67;13.38;;;;;;;2.82;100.00;103113.41;5071898;28;20116;-78
2022/01/15 04:05:51;;;;;;;48.80;14.82;;;;;;;2.86;100.00;103115.25;5075647;28;20101;-84
2022/01/15 04:08:16;;;;;;;49.90;15.18;;;;;;;2.82;100.00;103110.81;5075087;28;20095;-79
2022/01/15 04:10:42;;;;;;;54.17;14.90;;;;;;;2.84;100.00;103099.53;5075328;28;20055;-83
2022/01/15 04:13:07;;;;;;;50.35;14.15;;;;;;;2.87;100.00;103098.72;5074851;28;20028;-76
2022/01/15 04:15:33;;;;;;;56.00;15.68;;;;;;;2.83;100.00;103092.50;5075415;28;20024;-78
2022/01/15 04:17:59;;;;;;;57.08;14.68;;;;;;;2.83;100.00;103086.41;5074805;28;20078;-73
2022/01/15 04:20:24;;;;;;;48.03;15.13;;;;;;;2.82;100.00;103088.13;5075317;28;20024;-80
2022/01/15 04:22:52;;;;;;;55.08;16.15;;;;;;;2.85;100.00;103084.69;5074832;28;20510;-81
2022/01/15 04:25:18;;;;;;;56.58;16.30;;;;;;;2.84;100.00;103086.44;5075109;28;20495;-82
2022/01/15 04:27:44;;;;;;;66.05;16.92;;;;;;;2.86;100.00;103099.56;5075145;28;20040;-82
2022/01/15 04:30:12;;;;;;;64.93;16.48;;;;;;;2.84;100.00;103085.53;5074555;28;20499;-82
2022/01/15 04:32:39;;;;;;;51.95;14.93;;;;;;;2.79;100.00;103088.06;5074972;28;20036;-82
2022/01/15 04:35:05;;;;;;;56.88;15.10;;;;;;;2.82;100.00;103082.88;5074899;28;20030;-72
2022/01/15 04:38:08;;;;;;;50.80;13.80;;;;;;;2.82;100.00;103080.28;5074933;28;20047;-81
2022/01/15 04:40:22;;;;;;;61.45;14.85;;;;;;;2.76;100.00;103081.03;5072525;28;20117;-77
2022/01/15 04:42:47;;;;;;;43.95;12.18;;;;;;;2.66;100.00;103076.41;5069098;28;20473;-74
2022/01/15 04:45:13;;;;;;;47.90;13.07;;;;;;;2.66;100.00;103068.56;5068951;28;20036;-81
2022/01/15 04:47:39;;;;;;;49.90;12.05;;;;;;;2.59;100.00;103074.50;5073502;28;20035;-79
2022/01/15 04:50:07;;;;;;;42.35;12.60;;;;;;;2.54;100.00;103076.97;5074277;28;20032;-83
2022/01/15 04:52:34;;;;;;;49.17;13.82;;;;;;;2.49;100.00;103073.38;5074909;28;20036;-84
2022/01/15 04:55:01;;;;;;;43.00;13.65;;;;;;;2.45;100.00;103072.41;5074522;28;20035;-83
2022/01/15 04:57:28;;;;;;;60.10;13.45;;;;;;;2.39;100.00;103061.81;5074215;28;20365;-81
2022/01/15 04:59:53;;;;;;;47.05;12.63;;;;;;;2.33;100.00;103055.53;5074328;28;20545;-78
2022/01/15 05:02:18;;;;;;;58.65;13.07;;;;;;;2.30;100.00;103056.34;5074461;28;20024;-84
2022/01/15 05:04:44;;;;;;;42.70;12.80;;;;;;;2.31;100.00;103062.47;5074133;28;20028;-75
2022/01/15 05:07:09;;;;;;;43.85;12.07;;;;;;;2.29;100.00;103063.31;5074477;28;20112;-80
2022/01/15 05:09:34;;;;;;;37.55;12.40;;;;;;;2.25;100.00;103058.84;5073819;28;20027;-77
2022/01/15 05:12:10;;;;;;;53.90;12.43;;;;;;;2.18;100.00;103049.06;5074409;28;20460;-79
2022/01/15 05:14:36;;;;;;;45.42;11.95;;;;;;;2.18;100.00;103045.59;5073526;28;20028;-84
2022/01/15 05:17:02;;;;;;;44.35;12.90;;;;;;;2.22;100.00;103037.84;5074157;28;20035;-73
2022/01/15 05:19:28;;;;;;;39.35;11.65;;;;;;;2.28;100.00;103040.63;5074111;28;20031;-73
2022/01/15 05:21:58;;;;;;;38.95;11.23;;;;;;;2.29;100.00;103028.44;5074255;28;20036;-73
2022/01/15 05:24:29;;;;;;;46.10;12.15;;;;;;;2.27;100.00;103019.66;5074184;28;20067;-83
2022/01/15 05:26:54;;;;;;;42.03;12.25;;;;;;;2.27;100.00;103003.97;5073453;28;20476;-74
2022/01/15 05:29:20;;;;;;;48.95;13.93;;;;;;;2.30;100.00;103009.28;5073986;28;20039;-84
2022/01/15 05:31:45;;;;;;;57.28;14.10;;;;;;;2.32;100.00;103010.19;5073867;28;20488;-75
2022/01/15 05:34:10;;;;;;;51.85;12.85;;;;;;;2.34;100.00;102999.78;5073876;28;20032;-84
2022/01/15 05:36:36;;;;;;;64.97;13.00;;;;;;;2.28;100.00;103014.47;5073187;28;20053;-73
2022/01/15 05:39:02;;;;;;;62.25;13.95;;;;;;;2.23;100.00;103005.63;5073577;28;20071;-84
2022/01/15 05:41:27;;;;;;;47.95;13.80;;;;;;;2.18;100.00;102998.53;5073192;28;20471;-78
2022/01/15 05:43:52;;;;;;;51.30;12.90;;;;;;;2.22;100.00;103000.38;5073807;28;20032;-81
2022/01/15 05:46:18;;;;;;;53.72;13.68;;;;;;;2.22;100.00;103002.97;5073121;28;20387;-77
2022/01/15 05:48:43;;;;;;;51.90;13.93;;;;;;;2.25;100.00;102993.50;5073487;28;20514;-81
2022/01/15 05:51:08;;;;;;;67.53;14.63;;;;;;;2.28;100.00;102998.78;5073177;28;20539;-79
2022/01/15 05:53:34;;;;;;;61.95;13.38;;;;;;;2.33;100.00;102987.53;5073580;28;20032;-73
2022/01/15 05:55:59;;;;;;;62.95;14.55;;;;;;;2.30;100.00;102983.13;5073009;28;20017;-82
2022/01/15 05:58:24;;;;;;;66.85;14.32;;;;;;;2.22;100.00;102979.47;5073041;28;20033;-79
2022/01/15 06:00:49;;;;;;;57.30;14.38;;;;;;;2.15;100.00;102977.53;5072924;28;20025;-79
2022/01/15 06:03:15;;;;;;;72.25;13.85;;;;;;;2.14;100.00;102987.09;5072589;28;20107;-74
2022/01/15 06:05:40;;;;;;;67.85;13.23;;;;;;;2.09;100.00;102981.75;5072574;28;20016;-78
2022/01/15 06:08:05;;;;;;;56.08;13.50;;;;;;;2.08;100.00;102976.50;5072192;28;20476;-73
2022/01/15 06:10:31;;;;;;;78.93;15.23;;;;;;;2.07;100.00;102974.72;5072995;28;20020;-73
2022/01/15 06:12:56;;;;;;;72.25;13.85;;;;;;;2.04;100.00;102972.91;5057880;28;20060;-83
2022/01/15 06:15:21;;;;;;;57.97;14.32;;;;;;;2.05;100.00;102973.81;5081656;28;20042;-80
2022/01/15 06:17:47;;;;;;;73.80;14.98;;;;;;;2.07;100.00;102964.28;5070225;28;20020;-73
2022/01/15 06:20:14;;;;;;;83.15;14.85;;;;;;;2.10;100.00;102962.63;5052957;28;20021;-86
2022/01/15 06:22:39;;;;;;;53.08;13.30;;;;;;;2.11;100.00;102964.41;5052800;28;20115;-78
2022/01/15 06:25:05;;;;;;;67.10;14.60;;;;;;;2.06;100.00;102962.50;5052629;28;20041;-85
2022/01/15 06:27:31;;;;;;;60.53;15.02;;;;;;;2.09;100.00;102960.84;5053046;28;20082;-84
2022/01/15 06:29:58;;;;;;;59.05;15.13;;;;;;;2.17;100.00;102958.41;5067979;28;20089;-77
2022/01/15 06:32:25;;;;;;;64.68;13.93;;;;;;;2.20;100.00;102968.97;5070813;28;20564;-83
2022/01/15 06:34:50;;;;;;;58.85;14.18;;;;;;;2.21;100.00;102972.44;5072431;28;20032;-86
2022/01/15 06:37:16;;;;;;;47.35;15.43;;;;;;;2.21;100.00;102967.22;5072147;28;20036;-87
2022/01/15 06:39:41;;;;;;;52.92;14.88;;;;;;;2.20;100.00;102971.59;5072029;28;20027;-79
2022/01/15 06:42:06;;;;;;;52.03;13.57;;;;;;;2.18;100.00;102978.50;5072351;28;20394;-83
2022/01/15 06:44:32;;;;;;;54.63;13.43;;;;;;;2.20;100.00;102966.34;5072492;28;20037;-82
2022/01/15 06:46:57;;;;;;;40.58;13.07;;;;;;;2.23;100.00;102969.03;5069561;28;20445;-74
2022/01/15 06:49:23;;;;;;;46.33;13.50;;;;;;;2.25;100.00;102954.28;5065648;28;20048;-73
2022/01/15 06:51:48;;;;;;;60.28;14.18;;;;;;;2.26;100.00;102955.16;5058357;28;20082;-78
2022/01/15 06:54:13;;;;;;;46.38;13.70;;;;;;;2.29;100.00;102955.25;5072684;28;20361;-74
2022/01/15 06:56:39;;;;;;;55.90;13.75;;;;;;;2.24;100.00;102957.72;5074451;28;20108;-82
2022/01/15 06:59:04;;;;;;;66.60;15.07;;;;;;;2.23;100.00;102958.56;5067674;28;20025;-73
2022/01/15 07:01:29;;;;;;;62.58;14.65;;;;;;;2.20;100.00;102958.50;5072087;28;20036;-84
2022/01/15 07:03:55;;;;;;;53.47;15.20;;;;;;;2.22;100.00;102961.16;5072150;28;20117;-89
2022/01/15 07:06:20;;;;;;;54.10;16.25;;;;;;;2.19;100.00;102954.13;5071572;28;20138;-85
2022/01/15 07:08:45;;;;;;;60.08;15.65;;;;;;;2.18;100.00;102964.56;5074808;28;20028;-85
2022/01/15 07:11:10;;;;;;;67.95;16.23;;;;;;;2.18;100.00;102957.56;5079125;28;20035;-86
2022/01/15 07:13:36;;;;;;;54.20;15.52;;;;;;;2.21;100.00;102956.75;5072012;28;20551;-88
2022/01/15 07:16:01;;;;;;;57.08;17.30;;;;;;;2.23;100.00;102966.41;5071265;28;20032;-83
2022/01/15 07:18:27;;;;;;;59.47;17.58;;;;;;;2.26;100.00;102970.84;5072112;28;20028;-74
2022/01/15 07:20:52;;;;;;;69.03;18.50;;;;;;;2.28;100.00;102964.78;5072231;28;20028;-86
2022/01/15 07:23:18;;;;;;;60.90;17.92;;;;;;;2.28;100.00;102956.09;5062826;28;20025;-85
2022/01/15 07:25:44;;;;;;;54.85;16.33;;;;;;;2.28;100.00;102951.72;5065970;28;20036;-82
2022/01/15 07:28:09;;;;;;;64.28;16.77;;;;;;;2.28;100.00;102958.69;5071962;28;20028;-88
2022/01/15 07:30:35;;;;;;;65.22;17.25;;;;;;;2.29;100.00;102955.25;5072352;28;20024;-79
2022/01/15 07:33:00;;;;;;;56.17;17.17;;;;;;;2.29;100.00;102952.63;5072352;28;20024;-88
2022/01/15 07:35:26;;;;;;;70.68;18.77;;;;;;;2.33;100.00;102950.94;5071824;28;20036;-78
2022/01/15 07:37:51;;;;;;;58.35;17.92;;;;;;;2.32;100.00;102951.81;5071813;28;20030;-76
2022/01/15 07:40:17;;;;;;;70.20;20.63;;;;;;;2.30;100.00;102946.53;5072650;28;20029;-88
2022/01/15 07:42:42;;;;;;;72.55;19.35;;;;;;;2.25;100.00;102951.66;5072258;28;20374;-87
2022/01/15 07:45:13;;;;;;;64.28;17.45;;;;;;;2.19;100.00;102950.63;5071223;28;20086;-82
2022/01/15 07:47:40;;;;;;;77.10;18.13;;;;;;;2.16;100.00;102953.16;5072061;28;20033;-83
2022/01/15 07:50:09;;;;;;;58.40;20.05;;;;;;;2.15;100.00;102951.38;5071550;28;20597;-87
2022/01/15 07:52:35;;;;;;;71.70;17.63;;;;;;;2.16;100.00;102945.31;5074279;28;20086;-83
2022/01/15 07:55:02;;;;;;;87.55;19.58;;;;;;;2.12;100.00;102953.09;5072129;28;20024;-88
2022/01/15 07:57:27;;;;;;;75.53;17.60;;;;;;;2.09;100.00;102942.56;5071497;28;20491;-84
2022/01/15 07:59:52;;;;;;;77.75;19.58;;;;;;;2.06;100.00;102936.34;5071543;28;20024;-81
2022/01/15 08:02:18;;;;;;;61.50;17.92;;;;;;;2.06;100.00;102945.09;5071034;28;20033;-87
2022/01/15 08:04:44;;;;;;;65.63;17.55;;;;;;;2.07;100.00;102928.59;5062757;28;20036;-78
2022/01/15 08:07:09;;;;;;;64.00;17.15;;;;;;;2.08;100.00;102935.56;5055215;28;20774;-90
2022/01/15 08:09:35;;;;;;;82.82;20.48;;;;;;;2.11;100.00;102933.03;5054840;28;20074;-87
2022/01/15 08:12:01;;;;;;;68.85;19.15;;;;;;;2.13;100.00;102936.53;5072204;28;20028;-89
2022/01/15 08:14:27;;;;;;;75.90;19.33;;;;;;;2.14;100.00;102934.84;5067909;28;20085;-87
2022/01/15 08:16:52;;;;;;;62.08;17.98;;;;;;;2.12;100.00;102924.34;5071158;28;20107;-77
2022/01/15 08:19:17;;;;;;;65.28;18.33;;;;;;;2.05;100.00;102926.78;5073705;28;20040;-75
2022/01/15 08:21:43;;;;;;;73.28;19.45;;;;;;;2.01;100.00;102927.53;5066197;28;20032;-87
2022/01/15 08:24:09;;;;;;;70.05;20.38;;;;;;;1.98;100.00;102917.88;5070730;28;20020;-88
2022/01/15 08:26:35;;;;;;;86.80;20.73;;;;;;;2.04;100.00;102918.03;5073004;28;20037;-87
2022/01/15 08:29:00;;;;;;;68.18;19.33;;;;;;;2.07;100.00;102912.00;5074391;28;20025;-89
2022/01/15 08:31:25;;;;;;;90.60;20.70;;;;;;;2.11;100.00;102919.06;5074759;28;20056;-87
2022/01/15 08:33:51;;;;;;;69.63;20.38;;;;;;;2.11;100.00;102927.81;5075286;28;20388;-83
2022/01/15 08:36:17;;;;;;;70.47;20.77;;;;;;;2.11;100.00;102914.72;5074091;28;20079;-88
2022/01/15 08:38:43;;;;;;;89.88;20.48;;;;;;;2.10;100.00;102919.94;5075416;28;20042;-88
2022/01/15 08:41:08;;;;;;;111.95;21.42;;;;;;;2.12;100.00;102918.22;5069812;28;20403;-84
2022/01/15 08:43:34;;;;;;;69.63;20.52;;;;;;;2.12;100.00;102910.38;5074954;28;20041;-79
2022/01/15 08:45:59;;;;;;;85.03;22.48;;;;;;;2.16;100.00;102921.78;5074525;28;20021;-84
2022/01/15 08:48:25;;;;;;;135.80;22.85;;;;;;;2.16;100.00;102914.81;5074632;28;20026;-88
2022/01/15 08:50:50;;;;;;;95.30;21.73;;;;;;;2.17;100.00;102906.13;5071725;28;20484;-88
2022/01/15 08:53:17;;;;;;;92.85;23.02;;;;;;;2.16;100.00;102904.38;5074271;28;20020;-86
2022/01/15 08:55:44;;;;;;;94.35;21.55;;;;;;;2.19;100.00;102912.31;5074709;28;20090;-83
2022/01/15 08:58:09;;;;;;;77.43;21.65;;;;;;;2.20;100.00;102908.84;5074263;28;20027;-81
2022/01/15 09:00:34;;;;;;;93.30;22.17;;;;;;;2.19;100.00;102914.03;5073733;28;20028;-84
2022/01/15 09:03:00;;;;;;;91.55;22.25;;;;;;;2.22;100.00;102906.25;5074781;28;20111;-87
2022/01/15 09:05:25;;;;;;;101.35;22.90;;;;;;;2.22;100.00;102908.88;5072085;28;20024;-87
2022/01/15 09:07:51;;;;;;;77.47;22.90;;;;;;;2.24;100.00;102920.25;5069319;28;20104;-87
2022/01/15 09:10:17;;;;;;;86.28;21.17;;;;;;;2.23;100.00;102919.34;5066343;28;20476;-87
2022/01/15 09:12:43;;;;;;;82.28;21.48;;;;;;;2.19;100.00;102914.91;5071647;28;20440;-88
2022/01/15 09:15:08;;;;;;;75.35;20.42;;;;;;;2.22;100.00;102911.50;5071792;28;20027;-84
2022/01/15 09:17:34;;;;;;;96.30;21.88;;;;;;;2.22;100.00;102908.88;5073058;28;20028;-83
2022/01/15 09:19:59;;;;;;;100.40;22.65;;;;;;;2.19;100.00;102916.66;5078040;28;20027;-87
2022/01/15 09:22:24;;;;;;;112.22;21.92;;;;;;;2.20;100.00;102915.78;5072897;28;20028;-83
2022/01/15 09:24:50;;;;;;;84.35;21.85;;;;;;;2.22;100.00;102908.88;5074558;28;20384;-82
2022/01/15 09:30:12;;;;;;;88.35;21.13;;;;;;;2.28;100.00;102909.88;5073177;28;20063;-86
2022/01/15 09:32:58;;;;;;;79.93;20.48;;;;;;;2.35;100.00;102907.41;5074623;28;20021;-86
2022/01/15 09:35:25;;;;;;;86.78;21.13;;;;;;;2.36;100.00;102904.84;5082474;28;20044;-83
2022/01/15 09:37:52;;;;;;;86.45;21.33;;;;;;;2.39;100.00;102911.88;5072990;28;20029;-83
2022/01/15 09:40:20;;;;;;;110.05;23.75;;;;;;;2.40;100.00;102906.66;5067116;28;20029;-83
2022/01/15 09:42:47;;;;;;;77.43;20.15;;;;;;;2.40;100.00;102914.50;5060859;28;20465;-79
2022/01/15 09:45:14;;;;;;;80.43;20.38;;;;;;;2.44;100.00;102912.84;5068091;28;20107;-81
2022/01/15 09:47:40;;;;;;;82.28;19.90;;;;;;;2.46;100.00;102917.25;5066290;28;20113;-84
2022/01/15 09:50:09;;;;;;;73.60;19.73;;;;;;;2.52;100.00;102907.78;5068644;28;20040;-84
2022/01/15 09:52:36;;;;;;;95.47;20.73;;;;;;;2.55;100.00;102913.97;5068728;28;20048;-85
2022/01/15 09:55:04;;;;;;;89.97;21.50;;;;;;;2.56;100.00;102920.09;5072588;28;20052;-85
2022/01/15 09:57:29;;;;;;;75.15;19.30;;;;;;;2.51;100.00;102914.75;5073702;28;20034;-84
2022/01/15 09:59:55;;;;;;;72.72;18.92;;;;;;;2.41;100.00;102921.50;5072656;28;20017;-84
2022/01/15 10:02:20;;;;;;;72.22;20.30;;;;;;;2.40;100.00;102914.50;5068343;28;20085;-85
2022/01/15 10:04:45;;;;;;;77.68;20.25;;;;;;;2.37;100.00;102910.97;5069741;28;20107;-85
2022/01/15 10:07:11;;;;;;;80.03;19.63;;;;;;;2.41;100.00;102897.97;5065102;28;20123;-85
2022/01/15 10:09:37;;;;;;;89.18;20.90;;;;;;;2.43;100.00;102914.59;5070889;28;20020;-84
2022/01/15 10:12:03;;;;;;;82.97;19.88;;;;;;;2.46;100.00;102904.19;5073033;28;20994;-84
2022/01/15 10:14:31;;;;;;;79.57;20.70;;;;;;;2.43;100.00;102905.84;5070923;28;20021;-86
2022/01/15 10:16:58;;;;;;;68.70;19.15;;;;;;;2.45;100.00;102898.94;5071100;28;20094;-86
2022/01/15 10:19:32;;;;;;;69.47;18.90;;;;;;;2.53;100.00;102894.78;5069860;28;20020;-83
2022/01/15 10:22:09;;;;;;;74.88;20.00;;;;;;;2.58;100.00;102892.22;5072767;28;20123;-85
2022/01/15 10:24:35;;;;;;;60.85;17.35;;;;;;;2.59;100.00;102896.63;5069058;28;20082;-85
2022/01/15 10:27:30;;;;;;;67.75;18.30;;;;;;;2.61;100.00;102897.56;5072539;28;20021;-86
2022/01/15 10:30:12;;;;;;;68.15;18.55;;;;;;;2.66;100.00;102902.88;5070655;28;20064;-81
2022/01/15 10:32:59;;;;;;;67.60;18.85;;;;;;;2.71;100.00;102902.13;5068276;28;20032;-84
2022/01/15 10:35:30;;;;;;;70.65;20.23;;;;;;;2.71;100.00;102903.84;5066490;28;20052;-83
2022/01/15 10:37:58;;;;;;;64.35;19.00;;;;;;;2.73;100.00;102897.78;5071624;28;20021;-84
2022/01/15 10:40:27;;;;;;;58.10;18.15;;;;;;;2.75;100.00;102892.59;5072194;28;20024;-84
2022/01/15 10:42:58;;;;;;;58.22;17.13;;;;;;;2.71;100.00;102893.38;5071545;28;20032;-78
2022/01/15 10:45:26;;;;;;;61.35;17.25;;;;;;;2.70;100.00;102889.88;5072293;28;20024;-77
2022/01/15 10:47:55;;;;;;;59.97;18.52;;;;;;;2.69;100.00;102895.97;5072026;28;20025;-79
2022/01/15 10:50:23;;;;;;;50.28;16.75;;;;;;;2.72;100.00;102889.91;5069687;28;20052;-83
2022/01/15 10:52:49;;;;;;;56.85;18.52;;;;;;;2.69;100.00;102893.34;5071101;28;20071;-84
2022/01/15 10:55:16;;;;;;;53.95;17.55;;;;;;;2.63;100.00;102887.97;5069177;28;20035;-81
2022/01/15 10:57:43;;;;;;;54.13;17.30;;;;;;;2.60;100.00;102878.34;5072095;28;20471;-83
2022/01/15 11:00:19;;;;;;;52.05;17.70;;;;;;;2.63;100.00;102880.13;5071405;28;20025;-84
2022/01/15 11:02:47;;;;;;;45.38;15.98;;;;;;;2.69;100.00;102876.78;5072035;28;20559;-84
2022/01/15 11:05:32;;;;;;;51.42;16.08;;;;;;;2.70;100.00;102878.53;5072048;28;20027;-83
2022/01/15 11:08:04;;;;;;;51.90;16.30;;;;;;;2.69;100.00;102879.41;5071128;28;20016;-84
2022/01/15 11:10:36;;;;;;;52.80;16.90;;;;;;;2.68;100.00;102881.13;5071894;28;20029;-84
2022/01/15 11:13:06;;;;;;;50.15;15.38;;;;;;;2.74;100.00;102880.38;5072316;28;20098;-85
2022/01/15 11:15:31;;;;;;;47.00;16.27;;;;;;;2.71;100.00;102878.59;5072498;28;20024;-84
2022/01/15 11:17:57;;;;;;;46.10;17.13;;;;;;;2.78;100.00;102875.22;5072330;28;20541;-83
2022/01/15 11:20:24;;;;;;;42.92;15.70;;;;;;;2.84;100.00;102870.97;5076083;28;20082;-76
2022/01/15 11:22:49;;;;;;;44.67;16.33;;;;;;;2.91;100.00;102862.38;5073157;28;20059;-84
2022/01/15 11:25:15;;;;;;;42.53;15.07;;;;;;;2.87;100.00;102864.06;5070398;28;20480;-82
2022/01/15 11:27:40;;;;;;;42.58;15.73;;;;;;;2.86;100.00;102854.44;5068749;28;20024;-84
2022/01/15 11:30:07;;;;;;;45.72;15.75;;;;;;;2.84;100.00;102858.78;5072000;28;20028;-85
2022/01/15 11:32:33;;;;;;;43.28;15.48;;;;;;;2.89;100.00;102857.13;5072255;28;20425;-84
2022/01/15 11:35:08;;;;;;;52.30;16.13;;;;;;;2.88;100.00;102850.13;5063820;28;20054;-84
2022/01/15 11:37:53;;;;;;;46.20;16.17;;;;;;;2.97;100.00;102844.19;5067405;28;20086;-85
2022/01/15 11:40:39;;;;;;;41.50;14.55;;;;;;;3.00;100.00;102846.84;5070565;28;20028;-84